createdAt,value
2019-03-22T00:00:32.809Z,21.87
2019-03-22T00:03:02.258Z,20.50
2019-03-22T00:05:31.679Z,20.12
2019-03-22T00:08:01.669Z,20.15
2019-03-22T00:10:31.093Z,20.92
2019-03-22T00:13:00.653Z,20.08
2019-03-22T00:15:30.075Z,20.52
2019-03-22T00:17:59.515Z,20.50
2019-03-22T00:20:29.420Z,21.17
2019-03-22T00:22:58.865Z,22.42
2019-03-22T00:25:28.296Z,24.55
2019-03-22T00:27:58.634Z,22.58
2019-03-22T00:30:28.640Z,23.07
2019-03-22T00:32:58.629Z,24.47
2019-03-22T00:35:28.155Z,25.75
2019-03-22T00:37:57.609Z,29.90
2019-03-22T00:40:27.023Z,28.80
2019-03-22T00:42:56.898Z,27.82
2019-03-22T00:45:26.318Z,25.90
2019-03-22T00:47:55.764Z,31.95
2019-03-22T00:50:25.193Z,31.77
2019-03-22T00:52:54.637Z,30.97
2019-03-22T00:55:24.054Z,30.85
2019-03-22T00:57:53.505Z,29.20
2019-03-22T01:00:22.935Z,29.77
2019-03-22T01:02:52.393Z,28.10
2019-03-22T01:05:21.804Z,24.63
2019-03-22T01:07:51.250Z,23.38
2019-03-22T01:10:20.697Z,23.22
2019-03-22T01:12:50.118Z,23.52
2019-03-22T01:15:19.573Z,23.83
2019-03-22T01:17:48.996Z,23.42
2019-03-22T01:20:18.452Z,24.02
2019-03-22T01:22:47.869Z,26.17
2019-03-22T01:25:17.318Z,27.60
2019-03-22T01:27:46.749Z,25.55
2019-03-22T01:30:17.228Z,27.10
2019-03-22T01:32:46.645Z,27.15
2019-03-22T01:35:16.085Z,26.27
2019-03-22T01:37:45.507Z,27.95
2019-03-22T01:40:16.584Z,35.40
2019-03-22T01:42:46.011Z,29.18
2019-03-22T01:45:16.403Z,24.85
2019-03-22T01:47:45.863Z,26.40
2019-03-22T01:50:17.379Z,25.45
2019-03-22T01:52:46.801Z,28.83
2019-03-22T01:55:16.248Z,22.62
2019-03-22T01:57:53.123Z,23.40
2019-03-22T02:00:17.776Z,23.80
2019-03-22T02:02:47.218Z,21.55
2019-03-22T02:05:16.667Z,22.35
2019-03-22T02:07:46.091Z,22.45
2019-03-22T02:10:15.547Z,22.80
2019-03-22T02:12:44.959Z,21.52
2019-03-22T02:15:16.233Z,21.85
2019-03-22T02:17:45.663Z,22.05
2019-03-22T02:20:15.850Z,21.82
2019-03-22T02:22:45.265Z,21.75
2019-03-22T02:25:14.713Z,21.37
2019-03-22T02:27:44.132Z,21.15
2019-03-22T02:30:15.145Z,21.95
2019-03-22T02:32:44.543Z,20.70
2019-03-22T02:35:27.669Z,21.17
2019-03-22T02:37:45.314Z,21.42
2019-03-22T02:40:14.757Z,22.02
2019-03-22T02:42:44.171Z,21.68
2019-03-22T02:45:15.309Z,20.30
2019-03-22T02:47:44.749Z,21.45
2019-03-22T02:50:18.476Z,20.25
2019-03-22T02:52:45.808Z,20.12
2019-03-22T02:55:15.269Z,22.05
2019-03-22T02:57:44.693Z,22.75
2019-03-22T03:00:15.691Z,23.15
2019-03-22T03:02:45.095Z,22.25
2019-03-22T03:05:15.615Z,20.23
2019-03-22T03:07:45.028Z,22.30
2019-03-22T03:10:15.516Z,22.20
2019-03-22T03:12:44.941Z,21.33
2019-03-22T03:15:16.401Z,21.07
2019-03-22T03:17:45.812Z,21.80
2019-03-22T03:20:17.254Z,22.25
2019-03-22T03:22:46.803Z,21.27
2019-03-22T03:25:16.413Z,21.50
2019-03-22T03:27:45.840Z,20.65
2019-03-22T03:30:20.844Z,20.23
2019-03-22T03:32:50.301Z,19.57
2019-03-22T03:35:19.750Z,22.70
2019-03-22T03:37:49.183Z,26.10
2019-03-22T03:40:18.613Z,27.40
2019-03-22T03:42:48.043Z,23.10
2019-03-22T03:45:33.970Z,26.87
2019-03-22T03:48:05.576Z,28.80
2019-03-22T03:50:35.027Z,20.85
2019-03-22T03:53:04.688Z,20.55
2019-03-22T03:55:34.207Z,20.08
2019-03-22T03:58:03.629Z,20.15
2019-03-22T04:00:33.098Z,20.90
2019-03-22T04:03:02.517Z,21.55
2019-03-22T04:05:31.955Z,21.60
2019-03-22T04:08:01.396Z,21.17
2019-03-22T04:10:30.832Z,23.38
2019-03-22T04:13:00.285Z,20.30
2019-03-22T04:15:29.696Z,20.80
2019-03-22T04:17:59.220Z,20.12
2019-03-22T04:20:28.663Z,21.15
2019-03-22T04:22:58.119Z,21.02
2019-03-22T04:25:27.678Z,20.17
2019-03-22T04:27:57.241Z,21.95
2019-03-22T04:30:26.692Z,21.05
2019-03-22T04:32:56.119Z,19.95
2019-03-22T04:35:25.551Z,21.33
2019-03-22T04:37:54.995Z,20.97
2019-03-22T04:40:26.633Z,20.32
2019-03-22T04:42:56.072Z,19.40
2019-03-22T04:45:26.737Z,20.00
2019-03-22T04:48:08.291Z,18.82
2019-03-22T04:50:39.169Z,18.15
2019-03-22T04:53:09.390Z,19.55
2019-03-22T04:55:38.815Z,18.73
2019-03-22T04:58:08.280Z,19.75
2019-03-22T05:00:37.700Z,19.67
2019-03-22T05:03:07.150Z,17.80
2019-03-22T05:05:36.575Z,19.60
2019-03-22T05:08:06.034Z,19.10
2019-03-22T05:10:35.458Z,18.57
2019-03-22T05:13:04.911Z,27.25
2019-03-22T05:15:34.340Z,21.68
2019-03-22T05:18:03.995Z,20.12
2019-03-22T05:20:33.429Z,19.52
2019-03-22T05:23:03.506Z,22.20
2019-03-22T05:25:32.923Z,23.83
2019-03-22T05:28:02.372Z,24.65
2019-03-22T05:30:58.989Z,24.27
2019-03-22T05:33:29.041Z,18.30
2019-03-22T05:35:58.463Z,17.12
2019-03-22T05:38:27.918Z,17.50
2019-03-22T05:40:57.329Z,50.08
2019-03-22T05:43:27.244Z,18.90
2019-03-22T05:45:56.662Z,17.57
2019-03-22T05:48:26.112Z,17.17
2019-03-22T05:50:55.569Z,17.77
2019-03-22T05:53:28.383Z,18.57
2019-03-22T05:55:57.793Z,17.82
2019-03-22T05:58:27.395Z,17.30
2019-03-22T06:00:56.819Z,17.10
2019-03-22T06:03:26.383Z,17.02
2019-03-22T06:05:55.799Z,18.25
2019-03-22T06:08:25.251Z,17.23
2019-03-22T06:10:54.671Z,15.60
2019-03-22T06:13:24.192Z,17.27
2019-03-22T06:15:53.613Z,20.55
2019-03-22T06:18:23.087Z,20.30
2019-03-22T06:20:52.507Z,17.87
2019-03-22T06:23:21.956Z,18.02
2019-03-22T06:25:51.371Z,16.15
2019-03-22T06:28:20.827Z,17.70
2019-03-22T06:30:50.256Z,18.40
2019-03-22T06:33:19.715Z,26.35
2019-03-22T06:35:49.193Z,49.60
2019-03-22T06:38:18.649Z,18.73
2019-03-22T06:40:48.102Z,16.97
2019-03-22T06:43:17.775Z,16.77
2019-03-22T06:45:47.239Z,16.00
2019-03-22T06:48:16.664Z,15.50
2019-03-22T06:50:46.131Z,17.67
2019-03-22T06:53:15.612Z,17.07
2019-03-22T06:55:45.084Z,16.73
2019-03-22T06:58:14.511Z,14.93
2019-03-22T07:00:44.139Z,15.30
2019-03-22T07:03:13.558Z,15.08
2019-03-22T07:05:43.034Z,17.20
2019-03-22T07:08:12.441Z,15.48
2019-03-22T07:10:41.893Z,19.65
2019-03-22T07:13:11.320Z,16.50
2019-03-22T07:15:40.783Z,16.77
2019-03-22T07:18:10.248Z,16.00
2019-03-22T07:20:39.671Z,15.78
2019-03-22T07:23:09.096Z,16.93
2019-03-22T07:25:38.561Z,16.32
2019-03-22T07:28:08.022Z,14.80
2019-03-22T07:30:37.478Z,15.13
2019-03-22T07:33:09.096Z,15.05
2019-03-22T07:35:38.556Z,14.93
2019-03-22T07:38:07.975Z,15.65
2019-03-22T07:40:37.437Z,14.85
2019-03-22T07:43:06.855Z,13.90
2019-03-22T07:45:36.309Z,14.70
2019-03-22T07:48:05.727Z,14.43
2019-03-22T07:50:35.184Z,13.65
2019-03-22T07:53:04.607Z,13.55
2019-03-22T07:55:34.112Z,12.88
2019-03-22T07:58:03.499Z,13.50
2019-03-22T08:00:32.953Z,13.80
2019-03-22T08:03:02.596Z,13.70
2019-03-22T08:05:32.060Z,13.80
2019-03-22T08:08:01.481Z,12.95
2019-03-22T08:10:30.941Z,13.32
2019-03-22T08:13:00.387Z,12.95
2019-03-22T08:15:31.063Z,15.45
2019-03-22T08:18:00.760Z,12.93
2019-03-22T08:20:30.634Z,13.10
2019-03-22T08:23:01.498Z,12.60
2019-03-22T08:25:32.443Z,13.88
2019-03-22T08:28:02.061Z,12.85
2019-03-22T08:30:42.386Z,12.65
2019-03-22T08:33:05.188Z,13.45
2019-03-22T08:35:34.804Z,12.93
2019-03-22T08:38:04.601Z,12.88
2019-03-22T08:40:35.015Z,13.05
2019-03-22T08:43:04.582Z,11.30
2019-03-22T08:45:34.015Z,12.25
2019-03-22T08:48:03.448Z,12.13
2019-03-22T08:50:32.895Z,13.10
2019-03-22T08:53:02.332Z,13.30
2019-03-22T08:55:32.024Z,12.43
2019-03-22T08:58:02.552Z,12.18
2019-03-22T09:00:39.185Z,11.83
2019-03-22T09:03:03.981Z,11.90
2019-03-22T09:05:33.808Z,11.93
2019-03-22T09:08:03.267Z,10.63
2019-03-22T09:10:32.719Z,11.15
2019-03-22T09:13:02.479Z,10.32
2019-03-22T09:15:40.958Z,8.05
2019-03-22T09:18:03.067Z,8.93
2019-03-22T09:20:32.549Z,8.83
2019-03-22T09:23:02.010Z,9.83
2019-03-22T09:25:31.430Z,8.85
2019-03-22T09:28:00.903Z,9.43
2019-03-22T09:30:30.434Z,9.53
2019-03-22T09:33:00.075Z,9.70
2019-03-22T09:35:29.491Z,9.93
2019-03-22T09:38:12.025Z,10.08
2019-03-22T09:40:30.075Z,9.18
2019-03-22T09:42:59.581Z,8.20
2019-03-22T09:45:28.974Z,8.53
2019-03-22T09:47:58.445Z,8.58
2019-03-22T09:50:27.837Z,9.03
2019-03-22T09:52:57.499Z,8.90
2019-03-22T09:55:27.024Z,8.00
2019-03-22T09:57:56.493Z,9.38
2019-03-22T10:00:28.367Z,8.90
2019-03-22T10:02:57.854Z,9.95
2019-03-22T10:05:27.280Z,9.53
2019-03-22T10:07:56.721Z,9.18
2019-03-22T10:10:26.176Z,8.10
2019-03-22T10:12:55.715Z,8.85
2019-03-22T10:15:25.271Z,8.93
2019-03-22T10:17:54.845Z,8.25
2019-03-22T10:20:24.219Z,9.45
2019-03-22T10:22:53.671Z,8.60
2019-03-22T10:25:23.137Z,7.55
2019-03-22T10:27:52.675Z,7.85
2019-03-22T10:30:22.124Z,8.50
2019-03-22T10:32:51.582Z,8.28
2019-03-22T10:35:26.380Z,10.53
2019-03-22T10:38:00.112Z,8.00
2019-03-22T10:40:23.286Z,8.48
2019-03-22T10:42:55.089Z,9.80
2019-03-22T10:45:25.126Z,14.80
2019-03-22T10:47:56.109Z,9.18
2019-03-22T10:50:26.687Z,8.35
2019-03-22T10:53:05.008Z,11.48
2019-03-22T10:55:37.860Z,7.55
2019-03-22T10:58:20.967Z,11.97
2019-03-22T11:00:48.755Z,11.55
2019-03-22T11:03:30.745Z,9.58
2019-03-22T11:06:02.347Z,9.43
2019-03-22T11:08:38.786Z,7.65
2019-03-22T11:11:14.484Z,7.90
2019-03-22T11:13:47.962Z,8.43
2019-03-22T11:16:23.780Z,8.13
2019-03-22T11:19:16.803Z,8.30
2019-03-22T11:21:48.298Z,8.63
2019-03-22T11:27:14.012Z,9.35
2019-03-22T11:29:47.588Z,8.65
2019-03-22T11:32:19.771Z,9.10
2019-03-22T11:34:52.570Z,9.15
2019-03-22T11:37:24.988Z,9.30
2019-03-22T11:39:58.435Z,9.03
2019-03-22T11:42:30.982Z,9.30
2019-03-22T11:45:05.832Z,9.80
2019-03-22T11:47:43.706Z,9.45
2019-03-22T11:50:17.716Z,9.48
2019-03-22T11:52:47.648Z,8.98
2019-03-22T11:55:17.123Z,11.08
2019-03-22T11:57:47.983Z,10.28
2019-03-22T12:00:23.323Z,9.20
2019-03-22T12:02:55.844Z,8.55
2019-03-22T12:05:27.131Z,9.05
2019-03-22T12:07:56.837Z,8.63
2019-03-22T12:10:26.279Z,8.98
2019-03-22T12:12:55.698Z,8.25
2019-03-22T12:15:25.143Z,7.83
2019-03-22T12:17:54.562Z,9.23
2019-03-22T12:20:24.282Z,8.85
2019-03-22T12:22:53.712Z,8.48
2019-03-22T12:25:25.386Z,8.38
2019-03-22T12:27:54.814Z,9.08
2019-03-22T12:30:24.343Z,8.53
2019-03-22T12:32:53.770Z,9.15
2019-03-22T12:35:23.212Z,9.65
2019-03-22T12:37:52.625Z,9.68
2019-03-22T12:40:22.513Z,9.33
2019-03-22T12:42:51.934Z,10.48
2019-03-22T12:45:25.930Z,9.63
2019-03-22T12:47:55.352Z,10.15
2019-03-22T12:50:24.799Z,9.48
2019-03-22T12:52:54.224Z,10.82
2019-03-22T12:55:23.673Z,9.45
2019-03-22T12:57:53.094Z,10.28
2019-03-22T13:00:23.288Z,11.78
2019-03-22T13:02:52.746Z,10.78
2019-03-22T13:05:22.208Z,11.18
2019-03-22T13:07:51.699Z,10.00
2019-03-22T13:10:24.766Z,11.15
2019-03-22T13:12:54.193Z,11.57
2019-03-22T13:15:23.662Z,11.55
2019-03-22T13:17:53.087Z,10.35
2019-03-22T13:20:22.577Z,9.45
2019-03-22T13:22:52.001Z,10.20
2019-03-22T13:25:21.529Z,9.45
2019-03-22T13:27:50.961Z,10.13
2019-03-22T13:30:32.547Z,11.03
2019-03-22T13:33:01.974Z,14.68
2019-03-22T13:35:32.762Z,29.02
2019-03-22T13:38:02.244Z,31.48
2019-03-22T13:40:31.795Z,44.15
2019-03-22T13:43:02.192Z,24.90
2019-03-22T13:45:32.683Z,25.75
2019-03-22T13:48:03.741Z,27.35
2019-03-22T13:50:33.214Z,17.20
2019-03-22T13:53:02.765Z,17.02
2019-03-22T13:55:32.786Z,16.97
2019-03-22T13:58:02.224Z,16.40
2019-03-22T14:00:31.800Z,15.72
2019-03-22T14:03:02.978Z,12.82
2019-03-22T14:05:32.651Z,13.78
2019-03-22T14:08:02.113Z,13.80
2019-03-22T14:10:35.538Z,20.82
2019-03-22T14:13:06.137Z,25.75
2019-03-22T14:15:35.586Z,18.35
2019-03-22T14:18:05.532Z,16.07
2019-03-22T14:20:35.639Z,17.82
2019-03-22T14:23:05.091Z,20.25
2019-03-22T14:25:34.521Z,20.00
2019-03-22T14:28:03.979Z,20.68
2019-03-22T14:30:33.417Z,18.00
2019-03-22T14:33:12.609Z,20.82
2019-03-22T14:35:33.997Z,20.65
2019-03-22T14:38:03.834Z,19.05
2019-03-22T14:40:33.255Z,17.37
2019-03-22T14:43:02.715Z,20.62
2019-03-22T14:45:32.138Z,17.90
2019-03-22T14:48:02.083Z,26.90
2019-03-22T14:50:31.509Z,29.40
2019-03-22T14:53:00.964Z,23.60
2019-03-22T14:55:30.390Z,26.70
2019-03-22T14:57:59.846Z,37.75
2019-03-22T15:00:29.284Z,28.00
2019-03-22T15:02:58.732Z,28.60
2019-03-22T15:05:28.155Z,28.07
2019-03-22T15:07:57.604Z,32.33
2019-03-22T15:10:27.024Z,29.32
2019-03-22T15:12:56.484Z,24.80
2019-03-22T15:15:27.957Z,25.25
2019-03-22T15:18:02.043Z,27.90
2019-03-22T15:20:33.103Z,35.85
2019-03-22T15:23:16.070Z,33.15
2019-03-22T15:25:49.580Z,33.38
2019-03-22T15:28:37.072Z,28.75
2019-03-22T15:31:08.139Z,31.82
2019-03-22T15:33:55.147Z,29.12
2019-03-22T15:36:42.140Z,29.70
2019-03-22T15:39:19.410Z,28.15
2019-03-22T15:41:48.928Z,30.95
2019-03-22T15:44:18.489Z,27.42
2019-03-22T15:46:48.002Z,30.77
2019-03-22T15:49:17.450Z,30.65
2019-03-22T15:51:48.804Z,36.25
2019-03-22T15:54:18.029Z,36.80
2019-03-22T15:56:47.461Z,38.40
2019-03-22T15:59:16.916Z,35.13
2019-03-22T16:01:46.379Z,31.48
2019-03-22T16:04:15.810Z,28.87
2019-03-22T16:06:45.258Z,22.50
2019-03-22T16:09:14.685Z,26.37
2019-03-22T16:11:44.135Z,22.67
2019-03-22T16:14:13.555Z,16.85
2019-03-22T16:16:43.009Z,16.73
2019-03-22T16:19:12.433Z,13.38
2019-03-22T16:21:41.888Z,13.05
2019-03-22T16:24:11.324Z,259.30
2019-03-22T16:26:40.781Z,34.13
2019-03-22T16:29:10.213Z,145.38
2019-03-22T16:31:39.677Z,209.65
2019-03-22T16:34:09.112Z,40.10
2019-03-22T16:36:38.564Z,63.42
2019-03-22T16:39:08.774Z,25.27
2019-03-22T16:41:38.236Z,39.03
2019-03-22T16:44:07.673Z,14.45
2019-03-22T16:46:37.129Z,12.55
2019-03-22T16:49:06.943Z,14.40
2019-03-22T16:51:36.400Z,17.02
2019-03-22T16:54:05.835Z,16.97
2019-03-22T16:56:35.775Z,17.87
2019-03-22T16:59:05.198Z,17.32
2019-03-22T17:01:34.953Z,14.73
2019-03-22T17:04:04.887Z,13.95
2019-03-22T17:06:34.947Z,13.95
2019-03-22T17:09:05.738Z,13.58
2019-03-22T17:11:35.197Z,42.48
2019-03-22T17:14:04.949Z,18.10
2019-03-22T17:16:34.366Z,25.72
2019-03-22T17:19:04.001Z,23.73
2019-03-22T17:21:33.435Z,20.80
2019-03-22T17:24:02.906Z,21.93
2019-03-22T17:26:32.767Z,23.05
2019-03-22T17:29:02.224Z,26.87
2019-03-22T17:31:31.648Z,25.45
2019-03-22T17:34:01.094Z,24.07
2019-03-22T17:36:30.514Z,26.02
2019-03-22T17:38:59.965Z,32.20
2019-03-22T17:41:29.399Z,31.70
2019-03-22T17:43:58.840Z,32.78
2019-03-22T17:46:28.279Z,33.28
2019-03-22T17:48:57.725Z,31.30
2019-03-22T17:51:27.142Z,33.00
2019-03-22T17:53:56.600Z,33.92
2019-03-22T17:56:26.023Z,35.33
2019-03-22T17:58:55.471Z,38.05
2019-03-22T18:01:24.889Z,39.88
2019-03-22T18:03:54.335Z,40.67
2019-03-22T18:06:23.783Z,39.55
2019-03-22T18:08:53.233Z,39.45
2019-03-22T18:11:22.653Z,44.08
2019-03-22T18:13:52.112Z,44.35
2019-03-22T18:16:21.538Z,50.30
2019-03-22T18:18:50.993Z,57.73
2019-03-22T18:21:20.418Z,63.95
2019-03-22T18:23:50.076Z,66.07
2019-03-22T18:26:19.515Z,61.00
2019-03-22T18:28:48.968Z,58.08
2019-03-22T18:31:18.393Z,73.90
2019-03-22T18:33:47.843Z,74.03
2019-03-22T18:36:17.266Z,69.10
2019-03-22T18:38:46.714Z,75.85
2019-03-22T18:41:16.139Z,69.62
2019-03-22T18:43:45.602Z,71.53
2019-03-22T18:46:15.021Z,71.35
2019-03-22T18:48:44.474Z,71.17
2019-03-22T18:51:13.902Z,69.12
2019-03-22T18:53:43.353Z,79.72
2019-03-22T18:56:12.769Z,88.72
2019-03-22T18:58:42.424Z,79.22
2019-03-22T19:01:11.848Z,67.58
2019-03-22T19:03:41.310Z,70.52
2019-03-22T19:06:10.746Z,67.20
2019-03-22T19:08:40.202Z,67.80
2019-03-22T19:11:09.639Z,61.88
2019-03-22T19:13:39.099Z,61.00
2019-03-22T19:16:08.550Z,63.98
2019-03-22T19:18:39.452Z,63.25
2019-03-22T19:21:08.912Z,93.82
2019-03-22T19:23:38.335Z,65.87
2019-03-22T19:26:07.795Z,87.40
2019-03-22T19:28:37.223Z,86.45
2019-03-22T19:31:06.969Z,77.55
2019-03-22T19:33:36.923Z,81.35
2019-03-22T19:36:06.387Z,86.00
2019-03-22T19:38:35.815Z,73.22
2019-03-22T19:41:05.264Z,71.65
2019-03-22T19:43:34.696Z,68.55
2019-03-22T19:46:04.327Z,77.70
2019-03-22T19:48:34.098Z,74.27
2019-03-22T19:51:03.606Z,59.98
2019-03-22T19:53:33.039Z,60.03
2019-03-22T19:56:02.518Z,55.85
2019-03-22T19:58:31.939Z,67.58
2019-03-22T20:01:02.011Z,57.85
2019-03-22T20:03:31.440Z,48.42
2019-03-22T20:06:00.891Z,48.13
2019-03-22T20:08:30.330Z,46.28
2019-03-22T20:11:00.287Z,60.30
2019-03-22T20:13:29.722Z,63.85
2019-03-22T20:15:59.169Z,86.37
2019-03-22T20:18:28.598Z,56.90
2019-03-22T20:20:58.058Z,46.13
2019-03-22T20:23:27.496Z,38.53
2019-03-22T20:25:56.939Z,40.45
2019-03-22T20:28:26.366Z,38.55
2019-03-22T20:30:55.847Z,34.45
2019-03-22T20:33:25.244Z,32.98
2019-03-22T20:35:54.714Z,33.08
2019-03-22T20:38:24.170Z,28.40
2019-03-22T20:40:53.620Z,24.72
2019-03-22T20:43:23.042Z,26.97
2019-03-22T20:45:52.488Z,32.23
2019-03-22T20:48:21.916Z,25.17
2019-03-22T20:50:51.360Z,29.70
2019-03-22T20:53:20.779Z,28.55
2019-03-22T20:55:50.231Z,26.10
2019-03-22T20:58:19.649Z,19.57
2019-03-22T21:00:49.123Z,19.80
2019-03-22T21:03:18.550Z,20.08
2019-03-22T21:05:47.999Z,25.12
2019-03-22T21:08:17.418Z,30.48
2019-03-22T21:10:46.872Z,26.20
2019-03-22T21:13:16.292Z,24.55
2019-03-22T21:15:45.748Z,23.60
2019-03-22T21:18:15.199Z,23.70
2019-03-22T21:20:44.650Z,22.85
2019-03-22T21:23:14.091Z,22.15
2019-03-22T21:25:43.515Z,17.65
2019-03-22T21:28:12.969Z,20.15
2019-03-22T21:30:42.391Z,18.92
2019-03-22T21:33:11.847Z,20.60
2019-03-22T21:35:41.427Z,21.62
2019-03-22T21:38:11.482Z,24.57
2019-03-22T21:40:41.003Z,26.42
2019-03-22T21:43:10.487Z,30.30
2019-03-22T21:45:39.913Z,24.40
2019-03-22T21:48:09.379Z,23.52
2019-03-22T21:50:38.904Z,27.87
2019-03-22T21:53:08.368Z,22.27
2019-03-22T21:55:37.799Z,20.05
2019-03-22T21:58:07.258Z,20.05
2019-03-22T22:00:37.194Z,19.92
2019-03-22T22:03:06.643Z,29.23
2019-03-22T22:05:36.071Z,31.45
2019-03-22T22:08:06.002Z,26.55
2019-03-22T22:10:35.426Z,26.95
2019-03-22T22:13:05.203Z,20.30
2019-03-22T22:15:34.631Z,20.82
2019-03-22T22:18:04.078Z,18.42
2019-03-22T22:20:33.504Z,21.17
2019-03-22T22:23:03.569Z,20.77
2019-03-22T22:25:32.986Z,23.47
2019-03-22T22:28:03.092Z,27.62
2019-03-22T22:30:32.524Z,26.02
2019-03-22T22:33:02.147Z,26.25
2019-03-22T22:35:31.569Z,23.95
2019-03-22T22:38:01.023Z,24.05
2019-03-22T22:40:30.754Z,18.50
2019-03-22T22:43:00.415Z,18.37
2019-03-22T22:45:29.845Z,18.25
2019-03-22T22:47:59.296Z,18.40
2019-03-22T22:50:28.714Z,21.20
2019-03-22T22:52:58.157Z,29.10
2019-03-22T22:55:27.583Z,26.80
2019-03-22T22:57:57.041Z,29.20
2019-03-22T23:00:27.859Z,22.40
2019-03-22T23:02:57.297Z,22.55
2019-03-22T23:05:26.722Z,26.45
2019-03-22T23:07:56.176Z,29.57
2019-03-22T23:10:25.597Z,18.55
2019-03-22T23:12:55.051Z,18.50
2019-03-22T23:15:24.543Z,18.82
2019-03-22T23:17:54.007Z,15.23
2019-03-22T23:20:23.444Z,18.00
2019-03-22T23:22:52.909Z,15.43
2019-03-22T23:25:22.342Z,15.15
2019-03-22T23:27:51.792Z,16.00
2019-03-22T23:30:21.213Z,16.05
2019-03-22T23:32:50.662Z,16.75
2019-03-22T23:35:20.083Z,17.73
2019-03-22T23:37:49.529Z,17.05
2019-03-22T23:40:18.972Z,18.15
2019-03-22T23:42:48.390Z,21.20
2019-03-22T23:45:17.836Z,21.82
2019-03-22T23:47:47.253Z,21.02
2019-03-22T23:50:16.694Z,19.25
2019-03-22T23:52:46.125Z,18.92
2019-03-22T23:55:15.582Z,17.15
2019-03-22T23:57:45.010Z,17.37
